sensor_id;sensor_type;location;lat;lon;timestamp;P1;durP1;ratioP1;P2;durP2;ratioP2
10432;SDS011;5263;48.680;9.004;2023-07-29T00:01:33;1.10;;;0.70;;
10432;SDS011;5263;48.680;9.004;2023-07-29T00:03:59;2.30;;;0.70;;
10432;SDS011;5263;48.680;9.004;2023-07-29T00:06:25;7.83;;;1.23;;
10432;SDS011;5263;48.680;9.004;2023-07-29T00:08:50;1.77;;;0.70;;
10432;SDS011;5263;48.680;9.004;2023-07-29T00:11:16;0.70;;;0.70;;
10432;SDS011;5263;48.680;9.004;2023-07-29T00:13:41;0.60;;;0.60;;
10432;SDS011;5263;48.680;9.004;2023-07-29T00:16:07;1.53;;;0.60;;
10432;SDS011;5263;48.680;9.004;2023-07-29T00:18:33;1.00;;;0.70;;
10432;SDS011;5263;48.680;9.004;2023-07-29T00:20:58;2.23;;;0.70;;
10432;SDS011;5263;48.680;9.004;2023-07-29T00:23:24;4.60;;;0.80;;
10432;SDS011;5263;48.680;9.004;2023-07-29T00:25:49;1.03;;;0.77;;
10432;SDS011;5263;48.680;9.004;2023-07-29T00:28:15;0.60;;;0.60;;
10432;SDS011;5263;48.680;9.004;2023-07-29T00:30:41;3.27;;;0.90;;
10432;SDS011;5263;48.680;9.004;2023-07-29T00:33:06;2.00;;;1.77;;
10432;SDS011;5263;48.680;9.004;2023-07-29T00:35:32;1.63;;;1.53;;
10432;SDS011;5263;48.680;9.004;2023-07-29T00:37:58;3.90;;;1.50;;
10432;SDS011;5263;48.680;9.004;2023-07-29T00:40:24;3.07;;;1.00;;
10432;SDS011;5263;48.680;9.004;2023-07-29T00:42:51;1.93;;;1.33;;
10432;SDS011;5263;48.680;9.004;2023-07-29T00:45:17;1.00;;;0.90;;
10432;SDS011;5263;48.680;9.004;2023-07-29T00:47:43;2.07;;;0.80;;
10432;SDS011;5263;48.680;9.004;2023-07-29T00:50:09;1.77;;;0.70;;
10432;SDS011;5263;48.680;9.004;2023-07-29T00:52:37;1.63;;;0.87;;
10432;SDS011;5263;48.680;9.004;2023-07-29T00:55:03;1.67;;;0.90;;
10432;SDS011;5263;48.680;9.004;2023-07-29T00:57:29;3.33;;;0.80;;
10432;SDS011;5263;48.680;9.004;2023-07-29T00:59:55;1.37;;;0.87;;
10432;SDS011;5263;48.680;9.004;2023-07-29T01:02:21;1.53;;;0.70;;
10432;SDS011;5263;48.680;9.004;2023-07-29T01:04:54;2.77;;;0.80;;
10432;SDS011;5263;48.680;9.004;2023-07-29T01:12:26;1.77;;;0.80;;
10432;SDS011;5263;48.680;9.004;2023-07-29T01:15:16;2.13;;;0.97;;
10432;SDS011;5263;48.680;9.004;2023-07-29T01:17:54;1.33;;;0.90;;
10432;SDS011;5263;48.680;9.004;2023-07-29T01:20:23;0.60;;;0.60;;
10432;SDS011;5263;48.680;9.004;2023-07-29T01:22:50;2.93;;;1.13;;
10432;SDS011;5263;48.680;9.004;2023-07-29T01:25:16;2.73;;;0.83;;
10432;SDS011;5263;48.680;9.004;2023-07-29T01:27:45;3.27;;;0.90;;
10432;SDS011;5263;48.680;9.004;2023-07-29T01:30:11;0.60;;;0.60;;
10432;SDS011;5263;48.680;9.004;2023-07-29T01:35:10;3.77;;;0.80;;
10432;SDS011;5263;48.680;9.004;2023-07-29T01:37:48;2.63;;;0.60;;
10432;SDS011;5263;48.680;9.004;2023-07-29T01:40:17;2.77;;;0.87;;
10432;SDS011;5263;48.680;9.004;2023-07-29T01:42:44;3.07;;;0.80;;
10432;SDS011;5263;48.680;9.004;2023-07-29T01:45:11;0.97;;;0.83;;
10432;SDS011;5263;48.680;9.004;2023-07-29T01:47:36;2.13;;;0.80;;
10432;SDS011;5263;48.680;9.004;2023-07-29T01:50:05;1.80;;;0.80;;
10432;SDS011;5263;48.680;9.004;2023-07-29T01:52:31;1.77;;;0.80;;
10432;SDS011;5263;48.680;9.004;2023-07-29T01:54:57;1.93;;;0.60;;
10432;SDS011;5263;48.680;9.004;2023-07-29T01:57:22;1.00;;;0.87;;
10432;SDS011;5263;48.680;9.004;2023-07-29T01:59:48;1.97;;;0.80;;
10432;SDS011;5263;48.680;9.004;2023-07-29T02:02:14;1.63;;;0.80;;
10432;SDS011;5263;48.680;9.004;2023-07-29T02:04:39;1.67;;;0.70;;
10432;SDS011;5263;48.680;9.004;2023-07-29T02:07:05;2.65;;;0.70;;
10432;SDS011;5263;48.680;9.004;2023-07-29T02:09:30;1.50;;;0.60;;
10432;SDS011;5263;48.680;9.004;2023-07-29T02:11:56;1.43;;;0.70;;
10432;SDS011;5263;48.680;9.004;2023-07-29T02:14:22;3.80;;;1.00;;
10432;SDS011;5263;48.680;9.004;2023-07-29T02:16:48;2.53;;;0.80;;
10432;SDS011;5263;48.680;9.004;2023-07-29T02:19:14;1.33;;;0.80;;
10432;SDS011;5263;48.680;9.004;2023-07-29T02:21:40;1.57;;;0.80;;
10432;SDS011;5263;48.680;9.004;2023-07-29T02:24:05;1.70;;;0.70;;
10432;SDS011;5263;48.680;9.004;2023-07-29T02:26:31;1.43;;;0.70;;
10432;SDS011;5263;48.680;9.004;2023-07-29T02:28:56;2.40;;;0.73;;
10432;SDS011;5263;48.680;9.004;2023-07-29T02:31:22;2.23;;;0.70;;
10432;SDS011;5263;48.680;9.004;2023-07-29T02:33:49;1.23;;;0.70;;
10432;SDS011;5263;48.680;9.004;2023-07-29T02:36:16;5.03;;;0.80;;
10432;SDS011;5263;48.680;9.004;2023-07-29T02:38:41;2.43;;;0.90;;
10432;SDS011;5263;48.680;9.004;2023-07-29T02:41:08;1.23;;;0.93;;
10432;SDS011;5263;48.680;9.004;2023-07-29T02:43:37;2.57;;;1.03;;
10432;SDS011;5263;48.680;9.004;2023-07-29T02:46:05;3.87;;;0.90;;
10432;SDS011;5263;48.680;9.004;2023-07-29T02:48:30;3.70;;;1.20;;
10432;SDS011;5263;48.680;9.004;2023-07-29T02:50:56;1.47;;;0.97;;
10432;SDS011;5263;48.680;9.004;2023-07-29T02:53:22;3.10;;;0.87;;
10432;SDS011;5263;48.680;9.004;2023-07-29T02:55:47;1.40;;;0.80;;
10432;SDS011;5263;48.680;9.004;2023-07-29T02:58:13;1.40;;;0.90;;
10432;SDS011;5263;48.680;9.004;2023-07-29T03:00:39;2.30;;;1.00;;
10432;SDS011;5263;48.680;9.004;2023-07-29T03:03:08;0.70;;;0.70;;
10432;SDS011;5263;48.680;9.004;2023-07-29T03:05:34;1.67;;;0.97;;
10432;SDS011;5263;48.680;9.004;2023-07-29T03:07:59;1.20;;;1.10;;
10432;SDS011;5263;48.680;9.004;2023-07-29T03:10:25;2.47;;;0.80;;
10432;SDS011;5263;48.680;9.004;2023-07-29T03:12:53;0.80;;;0.80;;
10432;SDS011;5263;48.680;9.004;2023-07-29T03:15:19;1.30;;;0.80;;
10432;SDS011;5263;48.680;9.004;2023-07-29T03:17:47;0.90;;;0.90;;
10432;SDS011;5263;48.680;9.004;2023-07-29T03:20:13;0.70;;;0.70;;
10432;SDS011;5263;48.680;9.004;2023-07-29T03:22:38;0.90;;;0.70;;
10432;SDS011;5263;48.680;9.004;2023-07-29T03:25:04;1.10;;;0.87;;
10432;SDS011;5263;48.680;9.004;2023-07-29T03:27:30;0.80;;;0.80;;
10432;SDS011;5263;48.680;9.004;2023-07-29T03:29:56;4.13;;;0.80;;
10432;SDS011;5263;48.680;9.004;2023-07-29T03:32:22;1.73;;;1.00;;
10432;SDS011;5263;48.680;9.004;2023-07-29T03:34:47;3.30;;;1.30;;
10432;SDS011;5263;48.680;9.004;2023-07-29T03:37:13;5.13;;;1.33;;
10432;SDS011;5263;48.680;9.004;2023-07-29T03:39:39;2.13;;;0.90;;
10432;SDS011;5263;48.680;9.004;2023-07-29T03:42:04;4.67;;;1.13;;
10432;SDS011;5263;48.680;9.004;2023-07-29T03:44:30;0.97;;;0.93;;
10432;SDS011;5263;48.680;9.004;2023-07-29T03:46:56;1.70;;;0.77;;
10432;SDS011;5263;48.680;9.004;2023-07-29T03:49:22;7.67;;;1.50;;
10432;SDS011;5263;48.680;9.004;2023-07-29T03:51:47;1.57;;;1.00;;
10432;SDS011;5263;48.680;9.004;2023-07-29T03:54:13;2.20;;;1.00;;
10432;SDS011;5263;48.680;9.004;2023-07-29T03:56:38;1.20;;;0.77;;
10432;SDS011;5263;48.680;9.004;2023-07-29T03:59:05;3.37;;;0.87;;
10432;SDS011;5263;48.680;9.004;2023-07-29T04:01:31;3.10;;;1.10;;
10432;SDS011;5263;48.680;9.004;2023-07-29T04:03:57;1.30;;;0.93;;
10432;SDS011;5263;48.680;9.004;2023-07-29T04:06:24;2.20;;;0.90;;
10432;SDS011;5263;48.680;9.004;2023-07-29T04:08:50;1.60;;;0.97;;
10432;SDS011;5263;48.680;9.004;2023-07-29T04:11:16;3.17;;;0.80;;
10432;SDS011;5263;48.680;9.004;2023-07-29T04:13:41;1.20;;;1.10;;
10432;SDS011;5263;48.680;9.004;2023-07-29T04:16:07;1.70;;;1.07;;
10432;SDS011;5263;48.680;9.004;2023-07-29T04:18:33;1.50;;;1.07;;
10432;SDS011;5263;48.680;9.004;2023-07-29T04:20:58;1.70;;;1.00;;
10432;SDS011;5263;48.680;9.004;2023-07-29T04:23:24;4.17;;;1.00;;
10432;SDS011;5263;48.680;9.004;2023-07-29T04:25:49;2.93;;;1.17;;
10432;SDS011;5263;48.680;9.004;2023-07-29T04:28:16;2.53;;;1.37;;
10432;SDS011;5263;48.680;9.004;2023-07-29T04:30:42;3.73;;;1.37;;
10432;SDS011;5263;48.680;9.004;2023-07-29T04:33:08;3.47;;;1.60;;
10432;SDS011;5263;48.680;9.004;2023-07-29T04:35:33;4.73;;;1.50;;
10432;SDS011;5263;48.680;9.004;2023-07-29T04:37:59;3.87;;;1.97;;
10432;SDS011;5263;48.680;9.004;2023-07-29T04:40:24;1.67;;;1.43;;
10432;SDS011;5263;48.680;9.004;2023-07-29T04:42:50;1.60;;;1.50;;
10432;SDS011;5263;48.680;9.004;2023-07-29T04:45:16;3.33;;;1.70;;
10432;SDS011;5263;48.680;9.004;2023-07-29T04:47:42;1.73;;;1.60;;
10432;SDS011;5263;48.680;9.004;2023-07-29T04:50:07;3.30;;;1.50;;
10432;SDS011;5263;48.680;9.004;2023-07-29T04:52:34;6.03;;;1.50;;
10432;SDS011;5263;48.680;9.004;2023-07-29T04:54:59;5.60;;;1.87;;
10432;SDS011;5263;48.680;9.004;2023-07-29T04:57:25;3.33;;;1.90;;
10432;SDS011;5263;48.680;9.004;2023-07-29T04:59:50;4.17;;;1.50;;
10432;SDS011;5263;48.680;9.004;2023-07-29T05:02:16;6.43;;;2.63;;
10432;SDS011;5263;48.680;9.004;2023-07-29T05:04:42;2.60;;;2.20;;
10432;SDS011;5263;48.680;9.004;2023-07-29T05:07:07;3.17;;;1.90;;
10432;SDS011;5263;48.680;9.004;2023-07-29T05:09:33;3.73;;;1.70;;
10432;SDS011;5263;48.680;9.004;2023-07-29T05:11:58;2.70;;;1.90;;
10432;SDS011;5263;48.680;9.004;2023-07-29T05:14:24;3.00;;;1.77;;
10432;SDS011;5263;48.680;9.004;2023-07-29T05:16:50;1.63;;;1.40;;
10432;SDS011;5263;48.680;9.004;2023-07-29T05:19:15;1.90;;;1.80;;
10432;SDS011;5263;48.680;9.004;2023-07-29T05:21:41;1.80;;;1.60;;
10432;SDS011;5263;48.680;9.004;2023-07-29T05:24:06;2.57;;;1.33;;
10432;SDS011;5263;48.680;9.004;2023-07-29T05:26:32;5.00;;;1.73;;
10432;SDS011;5263;48.680;9.004;2023-07-29T05:28:58;3.03;;;1.93;;
10432;SDS011;5263;48.680;9.004;2023-07-29T05:31:23;2.03;;;1.67;;
10432;SDS011;5263;48.680;9.004;2023-07-29T05:33:49;1.43;;;1.33;;
10432;SDS011;5263;48.680;9.004;2023-07-29T05:36:15;2.07;;;1.97;;
10432;SDS011;5263;48.680;9.004;2023-07-29T05:38:40;2.30;;;1.57;;
10432;SDS011;5263;48.680;9.004;2023-07-29T05:41:06;1.70;;;1.50;;
10432;SDS011;5263;48.680;9.004;2023-07-29T05:43:32;1.63;;;1.43;;
10432;SDS011;5263;48.680;9.004;2023-07-29T05:45:57;1.77;;;1.60;;
10432;SDS011;5263;48.680;9.004;2023-07-29T05:48:23;1.50;;;1.40;;
10432;SDS011;5263;48.680;9.004;2023-07-29T05:50:48;3.17;;;1.47;;
10432;SDS011;5263;48.680;9.004;2023-07-29T05:53:15;1.30;;;1.20;;
10432;SDS011;5263;48.680;9.004;2023-07-29T05:55:41;1.63;;;1.53;;
10432;SDS011;5263;48.680;9.004;2023-07-29T05:58:06;3.87;;;1.60;;
10432;SDS011;5263;48.680;9.004;2023-07-29T06:00:32;2.10;;;1.47;;
10432;SDS011;5263;48.680;9.004;2023-07-29T06:02:57;1.53;;;1.43;;
10432;SDS011;5263;48.680;9.004;2023-07-29T06:05:23;4.83;;;1.47;;
10432;SDS011;5263;48.680;9.004;2023-07-29T06:07:49;1.63;;;1.17;;
10432;SDS011;5263;48.680;9.004;2023-07-29T06:10:15;1.33;;;1.00;;
10432;SDS011;5263;48.680;9.004;2023-07-29T06:12:46;1.30;;;1.10;;
10432;SDS011;5263;48.680;9.004;2023-07-29T06:15:12;1.83;;;0.80;;
10432;SDS011;5263;48.680;9.004;2023-07-29T06:17:38;2.50;;;0.90;;
10432;SDS011;5263;48.680;9.004;2023-07-29T06:20:06;1.00;;;1.00;;
10432;SDS011;5263;48.680;9.004;2023-07-29T06:22:32;0.70;;;0.70;;
10432;SDS011;5263;48.680;9.004;2023-07-29T06:24:57;1.67;;;0.67;;
10432;SDS011;5263;48.680;9.004;2023-07-29T06:27:23;0.70;;;0.70;;
10432;SDS011;5263;48.680;9.004;2023-07-29T06:29:50;0.80;;;0.80;;
10432;SDS011;5263;48.680;9.004;2023-07-29T06:32:16;1.23;;;1.00;;
10432;SDS011;5263;48.680;9.004;2023-07-29T06:34:41;2.50;;;0.60;;
10432;SDS011;5263;48.680;9.004;2023-07-29T06:37:07;3.60;;;0.87;;
10432;SDS011;5263;48.680;9.004;2023-07-29T06:39:32;1.57;;;0.80;;
10432;SDS011;5263;48.680;9.004;2023-07-29T06:41:58;0.63;;;0.63;;
10432;SDS011;5263;48.680;9.004;2023-07-29T06:44:23;2.07;;;1.00;;
10432;SDS011;5263;48.680;9.004;2023-07-29T06:46:49;0.73;;;0.70;;
10432;SDS011;5263;48.680;9.004;2023-07-29T06:49:15;2.33;;;1.10;;
10432;SDS011;5263;48.680;9.004;2023-07-29T06:51:40;3.03;;;0.70;;
10432;SDS011;5263;48.680;9.004;2023-07-29T06:54:06;1.43;;;0.83;;
10432;SDS011;5263;48.680;9.004;2023-07-29T06:56:31;2.47;;;1.00;;
10432;SDS011;5263;48.680;9.004;2023-07-29T06:58:57;2.73;;;0.90;;
10432;SDS011;5263;48.680;9.004;2023-07-29T07:01:22;1.77;;;0.80;;
10432;SDS011;5263;48.680;9.004;2023-07-29T07:03:48;1.10;;;0.87;;
10432;SDS011;5263;48.680;9.004;2023-07-29T07:06:13;1.30;;;0.70;;
10432;SDS011;5263;48.680;9.004;2023-07-29T07:08:39;3.03;;;0.77;;
10432;SDS011;5263;48.680;9.004;2023-07-29T07:11:06;2.20;;;1.00;;
10432;SDS011;5263;48.680;9.004;2023-07-29T07:13:31;1.80;;;0.80;;
10432;SDS011;5263;48.680;9.004;2023-07-29T07:15:57;0.70;;;0.70;;
10432;SDS011;5263;48.680;9.004;2023-07-29T07:18:22;2.30;;;0.70;;
10432;SDS011;5263;48.680;9.004;2023-07-29T07:20:49;2.00;;;0.60;;
10432;SDS011;5263;48.680;9.004;2023-07-29T07:23:15;2.53;;;0.50;;
10432;SDS011;5263;48.680;9.004;2023-07-29T07:25:41;1.00;;;0.80;;
10432;SDS011;5263;48.680;9.004;2023-07-29T07:28:10;1.67;;;0.80;;
10432;SDS011;5263;48.680;9.004;2023-07-29T07:30:39;3.33;;;0.70;;
10432;SDS011;5263;48.680;9.004;2023-07-29T07:33:06;1.03;;;0.63;;
10432;SDS011;5263;48.680;9.004;2023-07-29T07:35:31;0.67;;;0.60;;
10432;SDS011;5263;48.680;9.004;2023-07-29T07:37:57;0.90;;;0.90;;
10432;SDS011;5263;48.680;9.004;2023-07-29T07:40:24;0.60;;;0.53;;
10432;SDS011;5263;48.680;9.004;2023-07-29T07:42:50;0.53;;;0.53;;
10432;SDS011;5263;48.680;9.004;2023-07-29T07:45:15;1.13;;;0.80;;
10432;SDS011;5263;48.680;9.004;2023-07-29T07:47:42;0.50;;;0.50;;
10432;SDS011;5263;48.680;9.004;2023-07-29T07:50:08;0.50;;;0.50;;
10432;SDS011;5263;48.680;9.004;2023-07-29T07:52:34;0.50;;;0.50;;
10432;SDS011;5263;48.680;9.004;2023-07-29T07:54:59;1.10;;;0.40;;
10432;SDS011;5263;48.680;9.004;2023-07-29T07:57:25;0.47;;;0.40;;
10432;SDS011;5263;48.680;9.004;2023-07-29T07:59:51;0.40;;;0.37;;
10432;SDS011;5263;48.680;9.004;2023-07-29T08:02:17;0.70;;;0.37;;
10432;SDS011;5263;48.680;9.004;2023-07-29T08:04:43;1.90;;;0.40;;
10432;SDS011;5263;48.680;9.004;2023-07-29T08:07:08;0.97;;;0.70;;
10432;SDS011;5263;48.680;9.004;2023-07-29T08:09:34;0.40;;;0.40;;
10432;SDS011;5263;48.680;9.004;2023-07-29T08:12:00;0.50;;;0.30;;
10432;SDS011;5263;48.680;9.004;2023-07-29T08:14:25;0.33;;;0.30;;
10432;SDS011;5263;48.680;9.004;2023-07-29T08:16:52;0.30;;;0.30;;
10432;SDS011;5263;48.680;9.004;2023-07-29T08:19:17;1.00;;;0.30;;
10432;SDS011;5263;48.680;9.004;2023-07-29T08:21:43;2.33;;;0.43;;
10432;SDS011;5263;48.680;9.004;2023-07-29T08:24:08;2.00;;;0.40;;
10432;SDS011;5263;48.680;9.004;2023-07-29T08:26:34;1.57;;;0.50;;
10432;SDS011;5263;48.680;9.004;2023-07-29T08:29:00;1.13;;;0.40;;
10432;SDS011;5263;48.680;9.004;2023-07-29T08:31:25;0.40;;;0.40;;
10432;SDS011;5263;48.680;9.004;2023-07-29T08:33:51;0.80;;;0.40;;
10432;SDS011;5263;48.680;9.004;2023-07-29T08:36:17;0.40;;;0.40;;
10432;SDS011;5263;48.680;9.004;2023-07-29T08:38:42;0.40;;;0.40;;
10432;SDS011;5263;48.680;9.004;2023-07-29T08:43:59;1.67;;;0.50;;
10432;SDS011;5263;48.680;9.004;2023-07-29T08:46:34;2.37;;;0.40;;
10432;SDS011;5263;48.680;9.004;2023-07-29T08:49:00;1.33;;;0.40;;
10432;SDS011;5263;48.680;9.004;2023-07-29T08:51:27;1.83;;;0.50;;
10432;SDS011;5263;48.680;9.004;2023-07-29T08:53:54;1.63;;;0.47;;
10432;SDS011;5263;48.680;9.004;2023-07-29T08:56:20;1.30;;;0.60;;
10432;SDS011;5263;48.680;9.004;2023-07-29T08:58:46;2.70;;;0.50;;
10432;SDS011;5263;48.680;9.004;2023-07-29T09:01:12;2.00;;;0.50;;
10432;SDS011;5263;48.680;9.004;2023-07-29T09:03:38;0.40;;;0.40;;
10432;SDS011;5263;48.680;9.004;2023-07-29T09:06:04;0.90;;;0.40;;
10432;SDS011;5263;48.680;9.004;2023-07-29T09:08:31;0.73;;;0.50;;
10432;SDS011;5263;48.680;9.004;2023-07-29T09:10:58;0.30;;;0.30;;
10432;SDS011;5263;48.680;9.004;2023-07-29T09:13:24;0.77;;;0.50;;
10432;SDS011;5263;48.680;9.004;2023-07-29T09:15:53;0.40;;;0.40;;
10432;SDS011;5263;48.680;9.004;2023-07-29T09:18:20;0.60;;;0.60;;
10432;SDS011;5263;48.680;9.004;2023-07-29T09:20:47;0.40;;;0.40;;
10432;SDS011;5263;48.680;9.004;2023-07-29T09:23:14;0.50;;;0.40;;
10432;SDS011;5263;48.680;9.004;2023-07-29T09:25:40;1.43;;;0.40;;
10432;SDS011;5263;48.680;9.004;2023-07-29T09:28:10;0.60;;;0.60;;
10432;SDS011;5263;48.680;9.004;2023-07-29T09:30:40;1.67;;;0.43;;
10432;SDS011;5263;48.680;9.004;2023-07-29T09:33:10;0.40;;;0.40;;
10432;SDS011;5263;48.680;9.004;2023-07-29T09:35:36;2.00;;;0.50;;
10432;SDS011;5263;48.680;9.004;2023-07-29T09:38:03;2.47;;;0.47;;
10432;SDS011;5263;48.680;9.004;2023-07-29T09:40:36;0.50;;;0.50;;
10432;SDS011;5263;48.680;9.004;2023-07-29T09:43:03;0.53;;;0.40;;
10432;SDS011;5263;48.680;9.004;2023-07-29T09:45:29;0.50;;;0.50;;
10432;SDS011;5263;48.680;9.004;2023-07-29T09:47:57;1.63;;;0.60;;
10432;SDS011;5263;48.680;9.004;2023-07-29T09:50:24;0.87;;;0.57;;
10432;SDS011;5263;48.680;9.004;2023-07-29T09:52:50;0.60;;;0.60;;
10432;SDS011;5263;48.680;9.004;2023-07-29T09:55:17;1.13;;;0.60;;
10432;SDS011;5263;48.680;9.004;2023-07-29T09:57:44;1.93;;;0.67;;
10432;SDS011;5263;48.680;9.004;2023-07-29T10:00:13;3.80;;;0.60;;
10432;SDS011;5263;48.680;9.004;2023-07-29T10:02:39;0.67;;;0.60;;
10432;SDS011;5263;48.680;9.004;2023-07-29T10:05:07;0.60;;;0.60;;
10432;SDS011;5263;48.680;9.004;2023-07-29T10:07:34;0.73;;;0.60;;
10432;SDS011;5263;48.680;9.004;2023-07-29T10:10:02;2.03;;;0.60;;
10432;SDS011;5263;48.680;9.004;2023-07-29T10:12:33;0.53;;;0.53;;
10432;SDS011;5263;48.680;9.004;2023-07-29T10:15:01;0.50;;;0.50;;
10432;SDS011;5263;48.680;9.004;2023-07-29T10:17:33;1.13;;;0.60;;
10432;SDS011;5263;48.680;9.004;2023-07-29T10:20:01;0.83;;;0.70;;
10432;SDS011;5263;48.680;9.004;2023-07-29T10:22:28;2.70;;;0.67;;
10432;SDS011;5263;48.680;9.004;2023-07-29T10:25:02;0.63;;;0.60;;
10432;SDS011;5263;48.680;9.004;2023-07-29T10:30:30;0.60;;;0.60;;
10432;SDS011;5263;48.680;9.004;2023-07-29T10:32:56;0.60;;;0.60;;
10432;SDS011;5263;48.680;9.004;2023-07-29T10:35:23;1.87;;;0.50;;
10432;SDS011;5263;48.680;9.004;2023-07-29T10:37:50;0.50;;;0.50;;
10432;SDS011;5263;48.680;9.004;2023-07-29T10:40:18;0.67;;;0.60;;
10432;SDS011;5263;48.680;9.004;2023-07-29T10:43:08;2.57;;;0.60;;
10432;SDS011;5263;48.680;9.004;2023-07-29T10:45:38;0.80;;;0.47;;
10432;SDS011;5263;48.680;9.004;2023-07-29T10:48:06;1.03;;;0.60;;
10432;SDS011;5263;48.680;9.004;2023-07-29T10:50:35;2.40;;;0.60;;
10432;SDS011;5263;48.680;9.004;2023-07-29T10:53:00;0.70;;;0.70;;
10432;SDS011;5263;48.680;9.004;2023-07-29T10:55:27;5.93;;;0.60;;
10432;SDS011;5263;48.680;9.004;2023-07-29T11:00:32;0.70;;;0.47;;
10432;SDS011;5263;48.680;9.004;2023-07-29T11:03:02;1.10;;;0.60;;
10432;SDS011;5263;48.680;9.004;2023-07-29T11:05:46;0.50;;;0.50;;
10432;SDS011;5263;48.680;9.004;2023-07-29T11:08:18;0.70;;;0.50;;
10432;SDS011;5263;48.680;9.004;2023-07-29T11:11:12;0.70;;;0.60;;
10432;SDS011;5263;48.680;9.004;2023-07-29T11:13:38;1.80;;;0.67;;
10432;SDS011;5263;48.680;9.004;2023-07-29T11:16:04;0.60;;;0.60;;
10432;SDS011;5263;48.680;9.004;2023-07-29T11:18:34;2.53;;;0.70;;
10432;SDS011;5263;48.680;9.004;2023-07-29T11:21:00;1.47;;;0.60;;
10432;SDS011;5263;48.680;9.004;2023-07-29T11:23:29;2.07;;;0.57;;
10432;SDS011;5263;48.680;9.004;2023-07-29T11:25:59;0.60;;;0.60;;
10432;SDS011;5263;48.680;9.004;2023-07-29T11:28:26;1.07;;;0.70;;
10432;SDS011;5263;48.680;9.004;2023-07-29T11:30:53;1.47;;;0.60;;
10432;SDS011;5263;48.680;9.004;2023-07-29T11:33:26;0.70;;;0.50;;
10432;SDS011;5263;48.680;9.004;2023-07-29T11:35:53;0.70;;;0.70;;
10432;SDS011;5263;48.680;9.004;2023-07-29T11:38:20;0.77;;;0.50;;
10432;SDS011;5263;48.680;9.004;2023-07-29T11:40:54;0.70;;;0.70;;
10432;SDS011;5263;48.680;9.004;2023-07-29T11:43:20;0.70;;;0.60;;
10432;SDS011;5263;48.680;9.004;2023-07-29T11:45:46;0.70;;;0.70;;
10432;SDS011;5263;48.680;9.004;2023-07-29T11:48:12;0.60;;;0.60;;
10432;SDS011;5263;48.680;9.004;2023-07-29T11:50:37;0.63;;;0.63;;
10432;SDS011;5263;48.680;9.004;2023-07-29T11:53:03;3.33;;;0.70;;
10432;SDS011;5263;48.680;9.004;2023-07-29T11:55:28;1.23;;;0.70;;
10432;SDS011;5263;48.680;9.004;2023-07-29T11:57:55;4.00;;;0.70;;
10432;SDS011;5263;48.680;9.004;2023-07-29T12:00:21;0.60;;;0.60;;
10432;SDS011;5263;48.680;9.004;2023-07-29T12:02:47;0.80;;;0.80;;
10432;SDS011;5263;48.680;9.004;2023-07-29T12:05:14;0.97;;;0.63;;
10432;SDS011;5263;48.680;9.004;2023-07-29T12:07:41;0.87;;;0.67;;
10432;SDS011;5263;48.680;9.004;2023-07-29T12:10:09;1.23;;;0.53;;
10432;SDS011;5263;48.680;9.004;2023-07-29T12:12:48;2.20;;;1.00;;
10432;SDS011;5263;48.680;9.004;2023-07-29T12:15:27;1.90;;;0.90;;
10432;SDS011;5263;48.680;9.004;2023-07-29T12:17:54;0.77;;;0.70;;
10432;SDS011;5263;48.680;9.004;2023-07-29T12:20:21;0.60;;;0.60;;
10432;SDS011;5263;48.680;9.004;2023-07-29T12:22:51;0.93;;;0.77;;
10432;SDS011;5263;48.680;9.004;2023-07-29T12:25:32;0.80;;;0.80;;
10432;SDS011;5263;48.680;9.004;2023-07-29T12:28:02;0.80;;;0.80;;
10432;SDS011;5263;48.680;9.004;2023-07-29T12:30:29;1.27;;;0.80;;
10432;SDS011;5263;48.680;9.004;2023-07-29T12:32:54;0.70;;;0.70;;
10432;SDS011;5263;48.680;9.004;2023-07-29T12:35:20;3.63;;;0.70;;
10432;SDS011;5263;48.680;9.004;2023-07-29T12:37:45;2.38;;;0.80;;
10432;SDS011;5263;48.680;9.004;2023-07-29T12:40:21;1.10;;;0.75;;
10432;SDS011;5263;48.680;9.004;2023-07-29T12:42:48;1.98;;;0.60;;
10432;SDS011;5263;48.680;9.004;2023-07-29T12:45:15;0.73;;;0.73;;
10432;SDS011;5263;48.680;9.004;2023-07-29T12:47:41;0.60;;;0.50;;
10432;SDS011;5263;48.680;9.004;2023-07-29T12:50:07;0.68;;;0.68;;
10432;SDS011;5263;48.680;9.004;2023-07-29T12:52:33;1.48;;;0.55;;
10432;SDS011;5263;48.680;9.004;2023-07-29T12:54:58;1.13;;;0.70;;
10432;SDS011;5263;48.680;9.004;2023-07-29T12:57:24;0.68;;;0.40;;
10432;SDS011;5263;48.680;9.004;2023-07-29T12:59:49;0.63;;;0.60;;
10432;SDS011;5263;48.680;9.004;2023-07-29T13:02:15;0.85;;;0.70;;
10432;SDS011;5263;48.680;9.004;2023-07-29T13:04:40;0.70;;;0.55;;
10432;SDS011;5263;48.680;9.004;2023-07-29T13:07:06;2.77;;;0.80;;
10432;SDS011;5263;48.680;9.004;2023-07-29T13:09:31;3.25;;;0.70;;
10432;SDS011;5263;48.680;9.004;2023-07-29T13:11:57;0.50;;;0.50;;
10432;SDS011;5263;48.680;9.004;2023-07-29T13:14:23;0.70;;;0.60;;
10432;SDS011;5263;48.680;9.004;2023-07-29T13:16:51;1.33;;;0.57;;
10432;SDS011;5263;48.680;9.004;2023-07-29T13:19:18;0.50;;;0.50;;
10432;SDS011;5263;48.680;9.004;2023-07-29T13:21:44;0.60;;;0.60;;
10432;SDS011;5263;48.680;9.004;2023-07-29T13:24:09;0.83;;;0.57;;
10432;SDS011;5263;48.680;9.004;2023-07-29T13:26:35;0.60;;;0.60;;
10432;SDS011;5263;48.680;9.004;2023-07-29T13:29:00;0.50;;;0.50;;
10432;SDS011;5263;48.680;9.004;2023-07-29T13:31:26;0.93;;;0.53;;
10432;SDS011;5263;48.680;9.004;2023-07-29T13:33:51;0.50;;;0.50;;
10432;SDS011;5263;48.680;9.004;2023-07-29T13:36:17;0.60;;;0.60;;
10432;SDS011;5263;48.680;9.004;2023-07-29T13:38:43;0.80;;;0.60;;
10432;SDS011;5263;48.680;9.004;2023-07-29T13:41:08;0.70;;;0.70;;
10432;SDS011;5263;48.680;9.004;2023-07-29T13:43:34;0.70;;;0.70;;
10432;SDS011;5263;48.680;9.004;2023-07-29T13:45:59;0.70;;;0.70;;
10432;SDS011;5263;48.680;9.004;2023-07-29T13:48:25;2.17;;;0.70;;
10432;SDS011;5263;48.680;9.004;2023-07-29T13:50:50;0.50;;;0.50;;
10432;SDS011;5263;48.680;9.004;2023-07-29T13:53:17;0.80;;;0.60;;
10432;SDS011;5263;48.680;9.004;2023-07-29T13:55:42;0.63;;;0.63;;
10432;SDS011;5263;48.680;9.004;2023-07-29T13:58:08;0.50;;;0.50;;
10432;SDS011;5263;48.680;9.004;2023-07-29T14:00:34;1.63;;;0.60;;
10432;SDS011;5263;48.680;9.004;2023-07-29T14:02:59;0.93;;;0.60;;
10432;SDS011;5263;48.680;9.004;2023-07-29T14:05:25;0.60;;;0.60;;
10432;SDS011;5263;48.680;9.004;2023-07-29T14:07:50;0.60;;;0.60;;
10432;SDS011;5263;48.680;9.004;2023-07-29T14:10:16;0.67;;;0.53;;
10432;SDS011;5263;48.680;9.004;2023-07-29T14:12:42;1.20;;;0.60;;
10432;SDS011;5263;48.680;9.004;2023-07-29T14:15:07;0.60;;;0.60;;
10432;SDS011;5263;48.680;9.004;2023-07-29T14:17:33;0.93;;;0.80;;
10432;SDS011;5263;48.680;9.004;2023-07-29T14:19:59;1.13;;;0.67;;
10432;SDS011;5263;48.680;9.004;2023-07-29T14:22:24;3.33;;;0.70;;
10432;SDS011;5263;48.680;9.004;2023-07-29T14:24:50;0.87;;;0.70;;
10432;SDS011;5263;48.680;9.004;2023-07-29T14:27:15;0.80;;;0.80;;
10432;SDS011;5263;48.680;9.004;2023-07-29T14:29:41;0.60;;;0.60;;
10432;SDS011;5263;48.680;9.004;2023-07-29T14:32:07;0.50;;;0.50;;
10432;SDS011;5263;48.680;9.004;2023-07-29T14:34:33;0.60;;;0.60;;
10432;SDS011;5263;48.680;9.004;2023-07-29T14:36:58;2.25;;;0.60;;
10432;SDS011;5263;48.680;9.004;2023-07-29T14:39:24;0.70;;;0.70;;
10432;SDS011;5263;48.680;9.004;2023-07-29T14:41:50;2.57;;;0.90;;
10432;SDS011;5263;48.680;9.004;2023-07-29T14:44:15;1.10;;;0.80;;
10432;SDS011;5263;48.680;9.004;2023-07-29T14:46:41;0.97;;;0.70;;
10432;SDS011;5263;48.680;9.004;2023-07-29T14:49:06;0.70;;;0.70;;
10432;SDS011;5263;48.680;9.004;2023-07-29T14:51:32;1.33;;;0.60;;
10432;SDS011;5263;48.680;9.004;2023-07-29T14:53:57;0.80;;;0.80;;
10432;SDS011;5263;48.680;9.004;2023-07-29T14:56:23;3.40;;;2.10;;
10432;SDS011;5263;48.680;9.004;2023-07-29T14:58:49;0.60;;;0.60;;
10432;SDS011;5263;48.680;9.004;2023-07-29T15:01:15;1.00;;;1.00;;
10432;SDS011;5263;48.680;9.004;2023-07-29T15:03:41;2.13;;;0.60;;
10432;SDS011;5263;48.680;9.004;2023-07-29T15:06:06;0.63;;;0.63;;
10432;SDS011;5263;48.680;9.004;2023-07-29T15:08:32;0.70;;;0.70;;
10432;SDS011;5263;48.680;9.004;2023-07-29T15:10:57;0.83;;;0.70;;
10432;SDS011;5263;48.680;9.004;2023-07-29T15:13:23;0.50;;;0.50;;